»·PEaware :: N969WR KTEX-KDEN

N969WR :: KTEX-KDEN

FLIGHT INFORMATION

Flight Status: Arrived
Operator: Privately registered:
United States
More flights under this callsign
Pilot: Ion I. (24133)
Aircraft: CANADAIR CL-600 CHALLENGER
(CL60)
More flights by this aircraft type
Origin: KTEX Telluride Regl
United States
Destination: KDEN Denver Intl
United States
More flights between these airports :: More routes between these airports
Route: ETL SHNPS TBARR3
File this flight plan on PilotEdge
Remarks:
Altitude:
(Current/Filed)
35,000ft
Speed:
(Current/Filed)
460kts
Departed: 09-Sep-23 05:08 PM
Arrived: 09-Sep-23 05:52 PM
Distance/Time
Traveled:
189nm/0:44
Distance/Time
To Go:
Arrived

Flight Plot

Page will automatically refresh every two minutes.

Flight plan parsing failed; only flown route is shown


Map Options




Map Legend


Flown Route
Filed Route
Departure Airport
Arrival Airport
Navaid (VOR, NDB)
Fix

Horizontal Profiles

Position Reports

Time Latitude Longitude Heading Altitude Ground
Speed
09-Sep-23 16:45 37.953602 -107.900592 281 9078ft 0kts
09-Sep-23 16:46 37.953602 -107.900592 281 9078ft 0kts
09-Sep-23 16:47 37.953602 -107.900592 281 9078ft 0kts
09-Sep-23 16:48 37.953602 -107.900592 281 9078ft 0kts
09-Sep-23 16:49 37.953602 -107.900592 281 9078ft 0kts
09-Sep-23 16:50 37.953602 -107.900592 281 9078ft 0kts
09-Sep-23 16:51 37.953602 -107.900592 281 9078ft 0kts
09-Sep-23 16:52 37.953602 -107.900592 281 9078ft 0kts
09-Sep-23 16:53 37.953602 -107.900592 281 9078ft 0kts
09-Sep-23 16:54 37.953602 -107.900592 281 9078ft 0kts
09-Sep-23 16:55 37.953602 -107.900592 281 9078ft 0kts
09-Sep-23 16:56 37.953602 -107.900592 281 9078ft 0kts
09-Sep-23 16:57 37.953602 -107.900592 281 9078ft 0kts
09-Sep-23 16:58 37.953602 -107.900593 281 9078ft 0kts
09-Sep-23 16:59 37.953602 -107.900593 281 9078ft 0kts
09-Sep-23 17:00 37.953602 -107.900593 281 9078ft 0kts
09-Sep-23 17:01 37.953602 -107.900593 281 9078ft 0kts
09-Sep-23 17:02 37.953007 -107.899593 106 9078ft 13kts
09-Sep-23 17:03 37.952375 -107.896829 127 9078ft 0kts
09-Sep-23 17:04 37.952375 -107.896829 127 9078ft 0kts
09-Sep-23 17:04 37.952375 -107.896829 127 9078ft 0kts
09-Sep-23 17:06 37.952375 -107.896829 127 9078ft 0kts
09-Sep-23 17:07 37.951892 -107.896789 192 9078ft 8kts
09-Sep-23 17:08 37.951956 -107.899983 284 9078ft 76kts
09-Sep-23 17:09 37.963784 -107.954748 286 11151ft 207kts
09-Sep-23 17:09 37.980589 -108.019678 291 13880ft 245kts
09-Sep-23 17:10 38.006157 -108.102574 285 16913ft 259kts
09-Sep-23 17:11 38.054911 -108.159175 8 19909ft 282kts
09-Sep-23 17:13 38.080751 -108.065217 118 23506ft 295kts
09-Sep-23 17:14 38.069886 -107.959893 88 26463ft 319kts
09-Sep-23 17:14 38.076317 -107.858847 84 27914ft 367kts
09-Sep-23 17:15 38.088249 -107.716242 83 28302ft 449kts
09-Sep-23 17:16 38.102388 -107.550372 82 28312ft 479kts
09-Sep-23 17:17 38.116734 -107.381968 83 28237ft 478kts
09-Sep-23 17:19 38.132728 -107.185205 83 28221ft 478kts
09-Sep-23 17:19 38.144783 -107.044331 77 28178ft 477kts
09-Sep-23 17:20 38.215983 -106.906731 47 28132ft 470kts
09-Sep-23 17:21 38.299659 -106.779149 47 28205ft 467kts
09-Sep-23 17:22 38.383841 -106.650381 47 28285ft 471kts
09-Sep-23 17:23 38.467608 -106.521842 47 28409ft 471kts
09-Sep-23 17:24 38.551984 -106.391903 47 28474ft 472kts
09-Sep-23 17:25 38.635684 -106.262464 48 28340ft 472kts
09-Sep-23 17:26 38.718095 -106.136135 47 28224ft 467kts
09-Sep-23 17:27 38.801553 -106.008194 47 28230ft 464kts
09-Sep-23 17:28 38.885019 -105.879788 47 28200ft 468kts
09-Sep-23 17:29 38.968419 -105.750359 47 28284ft 468kts
09-Sep-23 17:30 39.050418 -105.622662 47 26366ft 444kts
09-Sep-23 17:31 39.127224 -105.502518 47 24155ft 424kts
09-Sep-23 17:32 39.199801 -105.387684 47 22479ft 392kts
09-Sep-23 17:33 39.267187 -105.280501 47 21159ft 368kts
09-Sep-23 17:34 39.341684 -105.197453 31 19886ft 352kts
09-Sep-23 17:35 39.421309 -105.125182 32 18722ft 350kts
09-Sep-23 17:36 39.494759 -105.046481 44 17357ft 335kts
09-Sep-23 17:37 39.558295 -104.957671 44 16488ft 333kts
09-Sep-23 17:38 39.621669 -104.870825 45 15684ft 330kts
09-Sep-23 17:39 39.683660 -104.785893 46 14865ft 317kts
09-Sep-23 17:40 39.745048 -104.704977 45 14027ft 310kts
09-Sep-23 17:41 39.801570 -104.621254 59 13205ft 304kts
09-Sep-23 17:42 39.848777 -104.532572 33 12329ft 289kts
09-Sep-23 17:43 39.923816 -104.521701 0 11538ft 258kts
09-Sep-23 17:44 39.993098 -104.522870 347 10373ft 211kts
09-Sep-23 17:45 40.026854 -104.567377 282 9510ft 174kts
09-Sep-23 17:46 40.021956 -104.628138 241 8664ft 170kts
09-Sep-23 17:47 39.984286 -104.658243 179 7855ft 164kts
09-Sep-23 17:48 39.939688 -104.658626 178 7017ft 155kts
09-Sep-23 17:49 39.896840 -104.659763 178 6209ft 149kts
09-Sep-23 17:50 39.855128 -104.660241 180 5390ft 127kts
09-Sep-23 17:51 39.840290 -104.661856 224 5413ft 10kts
09-Sep-23 17:52 39.838982 -104.664570 273 5411ft 5kts
09-Sep-23 17:53 39.839368 -104.665073 1 5411ft 0kts
09-Sep-23 17:54 39.839368 -104.665073 1 5411ft 0kts
09-Sep-23 17:55 39.839368 -104.665073 1 5411ft 0kts
09-Sep-23 17:56 39.839368 -104.665073 1 5411ft 0kts
09-Sep-23 17:57 39.839368 -104.665073 1 5411ft 0kts
09-Sep-23 17:58 39.839368 -104.665073 1 5411ft 0kts
09-Sep-23 17:59 39.839368 -104.665073 1 5411ft 0kts
09-Sep-23 18:00 39.839368 -104.665073 1 5411ft 0kts
09-Sep-23 18:01 39.839368 -104.665073 1 5411ft 0kts
09-Sep-23 18:02 39.839368 -104.665073 1 5411ft 0kts
09-Sep-23 18:03 39.839368 -104.665073 1 5411ft 0kts
09-Sep-23 18:04 39.839368 -104.665073 1 5411ft 0kts
09-Sep-23 18:05 39.839368 -104.665073 1 5411ft 0kts

Navigation Log

Ident Type
Flight plan parsing failed, navigation log unavailable